Time;durP1;ratioP1;P1;durP2;ratioP2;P2;SDS_P1;SDS_P2;PMS_P1;PMS_P2;Temp;Humidity;BMP_temperature;BMP_pressure;BME280_temperature;BME280_humidity;BME280_pressure;Samples;Min_cycle;Max_cycle;Signal;HPM_P1;HPM_P2
2022/08/07 00:02:17;;;;;;;;;;;20.40;78.50;;;;;;4946002;28;19931;-76
2022/08/07 00:04:44;;;;;;;;;;;20.40;78.40;;;;;;4950084;28;19997;-75
2022/08/07 00:07:11;;;;;;;;;;;20.40;78.30;;;;;;4947873;28;19926;-75
2022/08/07 00:09:38;;;;;;;;;;;20.30;78.10;;;;;;4948326;28;19937;-75
2022/08/07 00:12:05;;;;;;;;;;;20.30;78.10;;;;;;4945507;28;20472;-75
2022/08/07 00:14:33;;;;;;;;;;;20.30;78.10;;;;;;4947559;28;19930;-75
2022/08/07 00:17:00;;;;;;;;;;;20.30;78.10;;;;;;4947187;28;19966;-75
2022/08/07 00:19:28;;;;;;;;;;;20.30;78.00;;;;;;4946763;28;20218;-75
2022/08/07 00:21:55;;;;;;;;;;;20.20;77.70;;;;;;4945021;28;19931;-76
2022/08/07 00:24:22;;;;;;;;;;;20.20;77.60;;;;;;4944844;28;19926;-75
2022/08/07 00:26:50;;;;;;;;;;;20.20;77.70;;;;;;4947720;28;19926;-76
2022/08/07 00:29:18;;;;;;;;;;;20.10;77.50;;;;;;4947848;28;19955;-75
2022/08/07 00:31:46;;;;;;;;;;;20.10;77.50;;;;;;4943368;28;20393;-75
2022/08/07 00:34:13;;;;;;;;;;;20.10;77.60;;;;;;4947019;28;20152;-75
2022/08/07 00:36:40;;;;;;;;;;;20.10;77.70;;;;;;4948215;28;20447;-75
2022/08/07 00:39:07;;;;;;;;;;;20.10;77.60;;;;;;4956969;23;19936;-76
2022/08/07 00:41:34;;;;;;;;;;;20.00;77.80;;;;;;4953551;28;19974;-75
2022/08/07 00:44:00;;;;;;;;;;;20.00;77.90;;;;;;4947882;28;19984;-75
2022/08/07 00:46:27;;;;;;;;;;;20.00;77.90;;;;;;4935852;28;19926;-75
2022/08/07 00:49:00;;;;;;;;;;;20.00;77.90;;;;;;4935807;28;20025;-75
2022/08/07 00:51:28;;;;;;;;;;;20.00;77.80;;;;;;4934879;28;20266;-74
2022/08/07 00:53:55;;;;;;;;;;;19.90;77.80;;;;;;4957752;28;19997;-75
2022/08/07 00:56:22;;;;;;;;;;;19.90;77.70;;;;;;4941421;28;19966;-75
2022/08/07 00:58:48;;;;;;;;;;;19.90;77.70;;;;;;4931177;28;19977;-75
2022/08/07 01:01:15;;;;;;;;;;;19.90;77.60;;;;;;4934058;28;19942;-75
2022/08/07 01:03:42;;;;;;;;;;;19.80;77.40;;;;;;4940932;28;20396;-75
2022/08/07 01:06:11;;;;;;;;;;;19.80;77.30;;;;;;4929451;28;20361;-75
2022/08/07 01:08:39;;;;;;;;;;;19.80;77.00;;;;;;4937377;28;20041;-75
2022/08/07 01:11:06;;;;;;;;;;;19.80;76.80;;;;;;4936114;28;19970;-75
2022/08/07 01:13:33;;;;;;;;;;;19.70;76.40;;;;;;4944387;28;19932;-74
2022/08/07 01:16:00;;;;;;;;;;;19.70;76.20;;;;;;4934164;28;20347;-75
2022/08/07 01:18:28;;;;;;;;;;;19.70;76.10;;;;;;4940614;28;19935;-75
2022/08/07 01:21:03;;;;;;;;;;;19.60;76.00;;;;;;4940148;28;20424;-75
2022/08/07 01:23:32;;;;;;;;;;;19.60;75.80;;;;;;4937078;28;19931;-74
2022/08/07 01:26:00;;;;;;;;;;;19.60;76.00;;;;;;4936850;28;19930;-74
2022/08/07 01:28:26;;;;;;;;;;;19.50;75.90;;;;;;4940814;28;19970;-75
2022/08/07 01:30:55;;;;;;;;;;;19.50;75.80;;;;;;4937645;28;20366;-75
2022/08/07 01:33:23;;;;;;;;;;;19.50;75.80;;;;;;4935187;28;19927;-75
2022/08/07 01:35:52;;;;;;;;;;;19.50;75.80;;;;;;4942379;28;19937;-75
2022/08/07 01:38:21;;;;;;;;;;;19.40;75.70;;;;;;4935195;28;19989;-75
2022/08/07 01:40:49;;;;;;;;;;;19.40;75.70;;;;;;4938111;28;19934;-75
2022/08/07 01:43:16;;;;;;;;;;;19.40;75.70;;;;;;4929796;28;20311;-75
2022/08/07 01:45:43;;;;;;;;;;;19.40;75.60;;;;;;4935911;28;19930;-75
2022/08/07 01:48:15;;;;;;;;;;;19.40;75.60;;;;;;4939831;28;20407;-74
2022/08/07 01:50:45;;;;;;;;;;;19.40;75.60;;;;;;4937920;28;20009;-75
2022/08/07 01:53:14;;;;;;;;;;;19.30;75.50;;;;;;4938989;28;19942;-75
2022/08/07 01:55:45;;;;;;;;;;;19.30;75.50;;;;;;4937706;28;19941;-75
2022/08/07 01:58:13;;;;;;;;;;;19.30;75.60;;;;;;4947772;28;19926;-75
2022/08/07 02:00:41;;;;;;;;;;;19.20;75.50;;;;;;4936325;28;19933;-75
2022/08/07 02:03:09;;;;;;;;;;;19.20;75.60;;;;;;4937862;28;19934;-75
2022/08/07 02:05:39;;;;;;;;;;;19.20;75.60;;;;;;4939190;28;19927;-75
2022/08/07 02:08:09;;;;;;;;;;;19.20;75.70;;;;;;4938208;28;19927;-75
2022/08/07 02:10:39;;;;;;;;;;;19.10;75.70;;;;;;4950774;28;20412;-74
2022/08/07 02:13:09;;;;;;;;;;;19.10;75.70;;;;;;4940588;28;20025;-74
2022/08/07 02:15:46;;;;;;;;;;;19.10;75.70;;;;;;4934282;28;20376;-75
2022/08/07 02:18:15;;;;;;;;;;;19.10;75.70;;;;;;4940423;28;19927;-76
2022/08/07 02:20:42;;;;;;;;;;;19.00;75.70;;;;;;4951275;28;19926;-75
2022/08/07 02:23:10;;;;;;;;;;;19.00;75.80;;;;;;4933014;28;19937;-75
2022/08/07 02:25:39;;;;;;;;;;;19.00;75.80;;;;;;4933459;28;19931;-75
2022/08/07 02:28:06;;;;;;;;;;;19.00;75.90;;;;;;4935105;28;19931;-74
2022/08/07 02:30:35;;;;;;;;;;;18.90;75.90;;;;;;4938454;28;19966;-74
2022/08/07 02:33:03;;;;;;;;;;;18.90;76.00;;;;;;4939079;28;19933;-74
2022/08/07 02:35:32;;;;;;;;;;;18.90;76.20;;;;;;4936017;28;19966;-75
2022/08/07 02:38:01;;;;;;;;;;;18.90;76.40;;;;;;4943046;28;19973;-75
2022/08/07 02:40:28;;;;;;;;;;;18.90;76.50;;;;;;4940534;28;19927;-74
2022/08/07 02:42:58;;;;;;;;;;;18.80;76.50;;;;;;4947369;28;19933;-74
2022/08/07 02:45:27;;;;;;;;;;;18.80;76.60;;;;;;4937861;28;19933;-75
2022/08/07 02:47:56;;;;;;;;;;;18.80;76.80;;;;;;4943644;28;20323;-74
2022/08/07 02:50:23;;;;;;;;;;;18.80;76.80;;;;;;4948368;28;19937;-74
2022/08/07 02:52:53;;;;;;;;;;;18.80;77.00;;;;;;4936931;28;19935;-75
2022/08/07 02:55:21;;;;;;;;;;;18.70;99.90;;;;;;4938264;28;19934;-74
2022/08/07 02:57:49;;;;;;;;;;;18.70;99.90;;;;;;4936903;28;19931;-75
2022/08/07 03:00:16;;;;;;;;;;;;;;;;;;4950370;28;19937;-74
2022/08/07 03:02:45;;;;;;;;;;;18.60;90.70;;;;;;4938227;28;19927;-75
2022/08/07 03:05:15;;;;;;;;;;;18.70;77.50;;;;;;4957922;28;19958;-74
2022/08/07 03:07:44;;;;;;;;;;;18.60;77.50;;;;;;4942104;28;19931;-75
2022/08/07 03:10:12;;;;;;;;;;;18.60;77.70;;;;;;4944586;28;20404;-74
2022/08/07 03:12:40;;;;;;;;;;;18.60;77.80;;;;;;4940521;28;19927;-74
2022/08/07 03:15:12;;;;;;;;;;;18.60;77.90;;;;;;4938752;28;19926;-74
2022/08/07 03:17:39;;;;;;;;;;;18.60;78.10;;;;;;4945111;28;19985;-75
2022/08/07 03:20:09;;;;;;;;;;;18.60;78.30;;;;;;4939579;28;19934;-75
2022/08/07 03:22:37;;;;;;;;;;;18.60;78.50;;;;;;4948211;28;20582;-74
2022/08/07 03:25:04;;;;;;;;;;;18.50;78.70;;;;;;4942696;28;20297;-74
2022/08/07 03:27:39;;;;;;;;;;;18.50;78.90;;;;;;4939463;28;19978;-74
2022/08/07 03:30:07;;;;;;;;;;;18.50;79.10;;;;;;4936718;28;19930;-75
2022/08/07 03:32:36;;;;;;;;;;;18.50;79.40;;;;;;4943920;28;19989;-74
2022/08/07 03:35:05;;;;;;;;;;;18.50;79.60;;;;;;4948944;28;19976;-74
2022/08/07 03:37:36;;;;;;;;;;;18.50;79.90;;;;;;4935639;28;19926;-74
2022/08/07 03:40:05;;;;;;;;;;;18.50;80.20;;;;;;4945075;28;20560;-75
2022/08/07 03:42:33;;;;;;;;;;;18.40;80.40;;;;;;4941304;28;20375;-74
2022/08/07 03:45:01;;;;;;;;;;;18.40;80.70;;;;;;4940270;28;19937;-74
2022/08/07 03:47:28;;;;;;;;;;;18.40;80.80;;;;;;4938192;28;20026;-74
2022/08/07 03:49:56;;;;;;;;;;;18.40;81.20;;;;;;4939905;28;20028;-75
2022/08/07 03:52:26;;;;;;;;;;;18.40;81.50;;;;;;4939531;28;20486;-74
2022/08/07 03:54:56;;;;;;;;;;;18.40;81.90;;;;;;4937728;28;20021;-75
2022/08/07 03:57:25;;;;;;;;;;;18.40;82.50;;;;;;4938549;28;19927;-75
2022/08/07 03:59:52;;;;;;;;;;;18.40;82.70;;;;;;4938990;28;19938;-74
2022/08/07 04:02:19;;;;;;;;;;;18.40;82.90;;;;;;4941809;28;19935;-75
2022/08/07 04:04:46;;;;;;;;;;;18.30;83.00;;;;;;4943699;28;20364;-74
2022/08/07 04:07:15;;;;;;;;;;;18.30;83.30;;;;;;4941483;28;19926;-74
2022/08/07 04:09:42;;;;;;;;;;;18.30;83.60;;;;;;4938504;28;20017;-75
2022/08/07 04:12:09;;;;;;;;;;;18.30;83.80;;;;;;4940694;28;19982;-74
2022/08/07 04:14:40;;;;;;;;;;;18.30;83.90;;;;;;4944074;28;19934;-75
2022/08/07 04:17:07;;;;;;;;;;;18.30;83.90;;;;;;4956755;28;19931;-75
2022/08/07 04:19:34;;;;;;;;;;;18.30;83.90;;;;;;4940706;28;20298;-75
2022/08/07 04:22:01;;;;;;;;;;;18.30;83.90;;;;;;4936798;28;19961;-75
2022/08/07 04:24:32;;;;;;;;;;;18.30;84.20;;;;;;4935925;28;19926;-75
2022/08/07 04:27:03;;;;;;;;;;;18.30;84.30;;;;;;4941832;28;19942;-75
2022/08/07 04:29:30;;;;;;;;;;;18.30;84.50;;;;;;4940786;28;20349;-75
2022/08/07 04:31:59;;;;;;;;;;;18.30;84.40;;;;;;4937497;28;19935;-75
2022/08/07 04:34:26;;;;;;;;;;;18.20;84.40;;;;;;4939766;28;19927;-75
2022/08/07 04:36:53;;;;;;;;;;;18.20;84.50;;;;;;4935651;28;19926;-75
2022/08/07 04:39:20;;;;;;;;;;;18.20;84.40;;;;;;4943338;28;19934;-75
2022/08/07 04:41:47;;;;;;;;;;;18.20;84.60;;;;;;4939516;28;19937;-75
2022/08/07 04:44:15;;;;;;;;;;;18.20;84.80;;;;;;4942733;28;20711;-75
2022/08/07 04:46:45;;;;;;;;;;;18.20;84.90;;;;;;4936815;28;19927;-75
2022/08/07 04:49:18;;;;;;;;;;;18.20;84.90;;;;;;4935805;28;20457;-75
2022/08/07 04:51:54;;;;;;;;;;;18.20;84.90;;;;;;4934324;28;20103;-75
2022/08/07 04:54:24;;;;;;;;;;;18.10;85.10;;;;;;4934882;28;19941;-75
2022/08/07 04:56:56;;;;;;;;;;;18.10;85.00;;;;;;4940582;28;19931;-74
2022/08/07 04:59:28;;;;;;;;;;;18.10;85.30;;;;;;4937358;28;20029;-75
2022/08/07 05:01:58;;;;;;;;;;;18.10;85.50;;;;;;4937394;28;19926;-75
2022/08/07 05:04:31;;;;;;;;;;;18.10;85.70;;;;;;4943835;28;20009;-75
2022/08/07 05:07:00;;;;;;;;;;;18.10;85.70;;;;;;4942403;28;19927;-75
2022/08/07 05:09:32;;;;;;;;;;;18.10;85.90;;;;;;4940992;28;19973;-75
2022/08/07 05:12:01;;;;;;;;;;;18.10;86.10;;;;;;4938402;28;19958;-75
2022/08/07 05:14:32;;;;;;;;;;;18.10;86.30;;;;;;4942886;28;19933;-75
2022/08/07 05:17:00;;;;;;;;;;;18.10;86.30;;;;;;4935044;28;20182;-75
2022/08/07 05:19:34;;;;;;;;;;;18.10;86.30;;;;;;4956406;28;19927;-75
2022/08/07 05:22:02;;;;;;;;;;;18.10;86.40;;;;;;4937870;28;19926;-75
2022/08/07 05:24:33;;;;;;;;;;;18.00;86.50;;;;;;4938761;28;19937;-75
2022/08/07 05:27:01;;;;;;;;;;;18.10;87.20;;;;;;4930801;28;19997;-75
2022/08/07 05:29:29;;;;;;;;;;;18.00;86.60;;;;;;4938784;28;19935;-75
2022/08/07 05:31:58;;;;;;;;;;;18.00;86.60;;;;;;4941488;28;19973;-75
2022/08/07 05:34:31;;;;;;;;;;;18.00;86.40;;;;;;4934424;28;19933;-74
2022/08/07 05:36:58;;;;;;;;;;;18.00;86.50;;;;;;4938673;28;20389;-75
2022/08/07 05:39:34;;;;;;;;;;;18.00;86.40;;;;;;4943209;28;19934;-75
2022/08/07 05:42:03;;;;;;;;;;;18.00;86.60;;;;;;4941542;28;20122;-74
2022/08/07 05:44:30;;;;;;;;;;;18.00;86.60;;;;;;4939033;28;19926;-74
2022/08/07 05:47:01;;;;;;;;;;;18.00;86.70;;;;;;4944303;28;19931;-74
2022/08/07 05:49:30;;;;;;;;;;;18.00;86.90;;;;;;4942938;28;19981;-75
2022/08/07 05:51:58;;;;;;;;;;;18.00;86.90;;;;;;4956006;28;20018;-75
2022/08/07 05:54:26;;;;;;;;;;;18.00;87.00;;;;;;4934529;28;20021;-74
2022/08/07 05:56:54;;;;;;;;;;;18.00;87.00;;;;;;4935970;28;19949;-74
2022/08/07 05:59:23;;;;;;;;;;;18.00;87.00;;;;;;4934691;28;19930;-74
2022/08/07 06:01:56;;;;;;;;;;;18.00;86.90;;;;;;4936142;28;19927;-75
2022/08/07 06:04:24;;;;;;;;;;;18.00;86.70;;;;;;4947390;28;19927;-75
2022/08/07 06:06:52;;;;;;;;;;;18.00;86.70;;;;;;4940744;28;19926;-75
2022/08/07 06:09:19;;;;;;;;;;;18.00;86.50;;;;;;4936716;28;19930;-75
2022/08/07 06:11:48;;;;;;;;;;;18.00;86.40;;;;;;4953007;28;20057;-75
2022/08/07 06:14:16;;;;;;;;;;;18.00;86.00;;;;;;4947553;28;19933;-74
2022/08/07 06:16:47;;;;;;;;;;;18.00;85.90;;;;;;4958941;28;19934;-74
2022/08/07 06:19:14;;;;;;;;;;;18.00;85.60;;;;;;4932844;28;19927;-74
2022/08/07 06:21:41;;;;;;;;;;;17.90;85.40;;;;;;4934247;28;20409;-75
2022/08/07 06:24:10;;;;;;;;;;;17.90;85.30;;;;;;4940207;28;19942;-75
2022/08/07 06:26:39;;;;;;;;;;;17.90;85.40;;;;;;4944706;28;19981;-75
2022/08/07 06:29:05;;;;;;;;;;;17.90;85.30;;;;;;4938810;28;20442;-74
2022/08/07 06:31:33;;;;;;;;;;;17.90;85.80;;;;;;4899834;28;19935;-74
2022/08/07 06:34:00;;;;;;;;;;;17.90;86.00;;;;;;4943420;28;20003;-74
2022/08/07 06:36:28;;;;;;;;;;;17.80;86.10;;;;;;4928020;28;20454;-74
2022/08/07 06:38:57;;;;;;;;;;;17.90;86.20;;;;;;4931904;28;19934;-75
2022/08/07 06:41:29;;;;;;;;;;;17.90;86.00;;;;;;4940044;28;19930;-76
2022/08/07 06:43:57;;;;;;;;;;;17.90;85.90;;;;;;4938346;28;19934;-77
2022/08/07 06:46:25;;;;;;;;;;;17.90;85.70;;;;;;4938106;28;20848;-82
2022/08/07 06:48:54;;;;;;;;;;;17.90;85.80;;;;;;4931659;28;20244;-81
2022/08/07 06:51:27;;;;;;;;;;;17.90;85.70;;;;;;4934726;28;19935;-79
2022/08/07 06:53:55;;;;;;;;;;;17.90;85.60;;;;;;4931879;28;19957;-85
2022/08/07 06:59:06;;;;;;;;;;;17.90;85.10;;;;;;4937412;28;20416;-78
2022/08/07 07:01:34;;;;;;;;;;;17.90;84.90;;;;;;4937971;28;19974;-78
2022/08/07 07:04:01;;;;;;;;;;;17.90;84.70;;;;;;4929994;28;20109;-82
2022/08/07 07:06:27;;;;;;;;;;;17.90;85.10;;;;;;4940880;28;19927;-81
2022/08/07 07:08:54;;;;;;;;;;;17.90;85.20;;;;;;4938764;28;20021;-78
2022/08/07 07:11:21;;;;;;;;;;;17.90;85.30;;;;;;4938476;28;19927;-77
2022/08/07 07:13:51;;;;;;;;;;;18.00;85.40;;;;;;4943264;28;19930;-78
2022/08/07 07:16:21;;;;;;;;;;;18.00;85.30;;;;;;4928999;28;20783;-78
2022/08/07 07:18:50;;;;;;;;;;;18.00;85.30;;;;;;4937123;28;19926;-78
2022/08/07 07:21:19;;;;;;;;;;;18.00;85.20;;;;;;4933621;28;19981;-78
2022/08/07 07:23:46;;;;;;;;;;;18.00;85.10;;;;;;4937047;28;19934;-79
2022/08/07 07:26:14;;;;;;;;;;;18.00;84.90;;;;;;4934258;28;20468;-77
2022/08/07 07:28:45;;;;;;;;;;;18.00;84.70;;;;;;4943417;28;20361;-78
2022/08/07 07:31:13;;;;;;;;;;;18.10;84.70;;;;;;4934158;28;20060;-77
2022/08/07 07:33:43;;;;;;;;;;;18.10;84.30;;;;;;4941529;28;19931;-79
2022/08/07 07:36:10;;;;;;;;;;;18.10;84.20;;;;;;4931826;28;19949;-79
2022/08/07 07:38:38;;;;;;;;;;;18.10;84.00;;;;;;4933516;28;19930;-78
2022/08/07 07:41:06;;;;;;;;;;;18.10;83.90;;;;;;4931231;28;20332;-78
2022/08/07 07:43:33;;;;;;;;;;;18.10;83.90;;;;;;4936579;28;19926;-78
2022/08/07 07:46:01;;;;;;;;;;;18.10;83.80;;;;;;4935772;28;19934;-78
2022/08/07 07:48:28;;;;;;;;;;;18.10;83.60;;;;;;4934738;28;19934;-79
2022/08/07 07:50:59;;;;;;;;;;;18.10;83.40;;;;;;4932190;28;19926;-78
2022/08/07 07:53:26;;;;;;;;;;;18.10;83.50;;;;;;4940694;28;19933;-79
2022/08/07 07:55:55;;;;;;;;;;;18.20;83.40;;;;;;4933051;28;20022;-77
2022/08/07 07:58:22;;;;;;;;;;;18.20;83.20;;;;;;4937351;28;19933;-77
2022/08/07 08:00:52;;;;;;;;;;;18.10;82.90;;;;;;4922511;28;19941;-77
2022/08/07 08:03:21;;;;;;;;;;;18.10;82.80;;;;;;4930582;28;19943;-76
2022/08/07 08:05:48;;;;;;;;;;;18.10;82.70;;;;;;4932902;28;19930;-78
2022/08/07 08:08:17;;;;;;;;;;;18.10;82.70;;;;;;4935462;28;20413;-77
2022/08/07 08:10:44;;;;;;;;;;;18.10;82.80;;;;;;4932393;28;19931;-77
2022/08/07 08:13:12;;;;;;;;;;;18.10;82.80;;;;;;4934460;28;19949;-79
2022/08/07 08:15:40;;;;;;;;;;;18.10;82.80;;;;;;4930185;28;19935;-78
2022/08/07 08:18:08;;;;;;;;;;;18.10;82.70;;;;;;4936381;28;19931;-77
2022/08/07 08:20:35;;;;;;;;;;;18.20;82.90;;;;;;4938125;28;19930;-77
2022/08/07 08:28:37;;;;;;;;;;;18.20;82.90;;;;;;4929305;28;20141;-78
2022/08/07 08:31:06;;;;;;;;;;;18.20;83.00;;;;;;4927859;28;19927;-77
2022/08/07 08:33:33;;;;;;;;;;;18.20;82.80;;;;;;4931759;28;20020;-78
2022/08/07 08:36:01;;;;;;;;;;;18.20;82.80;;;;;;4932116;28;20021;-78
2022/08/07 08:38:32;;;;;;;;;;;18.20;82.80;;;;;;4928689;28;19934;-79
2022/08/07 08:41:04;;;;;;;;;;;18.20;82.70;;;;;;4928209;28;19962;-79
2022/08/07 08:43:33;;;;;;;;;;;18.20;82.60;;;;;;4932729;28;22252;-79
2022/08/07 08:46:05;;;;;;;;;;;18.20;82.50;;;;;;4933363;28;20354;-81
2022/08/07 08:48:35;;;;;;;;;;;18.30;83.10;;;;;;4930587;28;20019;-79
2022/08/07 08:51:05;;;;;;;;;;;18.30;82.50;;;;;;4933180;28;20418;-82
2022/08/07 08:53:36;;;;;;;;;;;18.30;82.30;;;;;;4926424;28;20432;-78
2022/08/07 08:56:07;;;;;;;;;;;18.30;82.30;;;;;;4934974;28;20013;-77
2022/08/07 08:58:36;;;;;;;;;;;18.30;82.30;;;;;;4932851;28;20028;-78
2022/08/07 09:01:07;;;;;;;;;;;18.30;82.20;;;;;;4930936;28;20342;-79
2022/08/07 09:03:39;;;;;;;;;;;18.30;82.10;;;;;;4919406;28;19930;-78
2022/08/07 09:06:08;;;;;;;;;;;18.40;82.10;;;;;;4927289;28;19993;-78
2022/08/07 09:08:41;;;;;;;;;;;18.40;81.80;;;;;;4928515;28;20056;-78
2022/08/07 09:11:19;;;;;;;;;;;18.40;81.70;;;;;;4933371;28;19931;-78
2022/08/07 09:13:53;;;;;;;;;;;18.40;81.50;;;;;;4926601;28;19941;-78
2022/08/07 09:16:23;;;;;;;;;;;18.40;81.20;;;;;;4928928;28;20435;-79
2022/08/07 09:18:56;;;;;;;;;;;18.40;81.10;;;;;;4936106;28;19931;-78
2022/08/07 09:21:28;;;;;;;;;;;18.40;81.10;;;;;;4931921;28;19934;-79
2022/08/07 09:24:01;;;;;;;;;;;18.40;81.20;;;;;;4934312;28;19954;-80
2022/08/07 09:26:33;;;;;;;;;;;18.40;80.90;;;;;;4932867;28;19934;-78
2022/08/07 09:29:04;;;;;;;;;;;18.50;80.80;;;;;;4934993;28;20025;-78
2022/08/07 09:31:36;;;;;;;;;;;18.50;80.70;;;;;;4935337;28;19927;-80
2022/08/07 09:34:11;;;;;;;;;;;18.50;80.70;;;;;;4939717;28;20319;-79
2022/08/07 09:36:41;;;;;;;;;;;18.50;80.50;;;;;;4954018;28;20343;-78
2022/08/07 09:39:16;;;;;;;;;;;18.50;80.40;;;;;;4939303;28;19938;-78
2022/08/07 09:41:46;;;;;;;;;;;18.50;80.50;;;;;;4941856;28;20504;-79
2022/08/07 09:44:18;;;;;;;;;;;18.60;80.50;;;;;;4934103;28;19938;-79
2022/08/07 09:46:52;;;;;;;;;;;18.60;80.40;;;;;;4932696;28;19926;-79
2022/08/07 09:49:26;;;;;;;;;;;18.60;80.10;;;;;;4931267;28;19934;-79
2022/08/07 09:51:59;;;;;;;;;;;18.60;79.70;;;;;;4940020;28;20449;-78
2022/08/07 09:54:33;;;;;;;;;;;18.60;79.80;;;;;;4939962;28;19982;-78
2022/08/07 09:57:20;;;;;;;;;;;18.60;80.00;;;;;;4938351;28;19938;-78
2022/08/07 09:59:58;;;;;;;;;;;18.60;80.10;;;;;;4936955;28;19927;-78
2022/08/07 10:02:34;;;;;;;;;;;18.60;80.10;;;;;;4934651;28;19934;-79
2022/08/07 10:05:05;;;;;;;;;;;18.70;80.20;;;;;;4928401;28;20198;-78
2022/08/07 10:07:48;;;;;;;;;;;18.70;80.10;;;;;;4932540;28;19934;-79
2022/08/07 10:10:30;;;;;;;;;;;18.70;80.00;;;;;;4932629;28;20410;-79
2022/08/07 10:13:09;;;;;;;;;;;18.70;80.10;;;;;;4936912;28;19927;-78
2022/08/07 10:15:43;;;;;;;;;;;18.70;80.00;;;;;;4929333;28;19981;-79
2022/08/07 10:18:25;;;;;;;;;;;18.80;80.10;;;;;;4939407;28;19930;-84
2022/08/07 10:21:02;;;;;;;;;;;18.90;81.00;;;;;;4938147;28;19934;-84
2022/08/07 10:23:44;;;;;;;;;;;19.00;80.20;;;;;;4938727;28;19944;-83
2022/08/07 10:26:20;;;;;;;;;;;19.10;80.60;;;;;;4941275;28;19927;-84
2022/08/07 10:28:58;;;;;;;;;;;19.30;81.30;;;;;;4932523;28;20025;-84
2022/08/07 10:31:31;;;;;;;;;;;19.40;81.10;;;;;;4930699;28;19942;-83
2022/08/07 10:34:05;;;;;;;;;;;19.60;80.60;;;;;;4944166;28;19927;-84
2022/08/07 10:36:40;;;;;;;;;;;19.70;80.30;;;;;;4938188;28;19933;-85
2022/08/07 10:39:12;;;;;;;;;;;19.80;79.70;;;;;;4935544;28;20312;-84
2022/08/07 10:41:42;;;;;;;;;;;19.90;79.00;;;;;;4939246;28;19930;-84
2022/08/07 10:44:13;;;;;;;;;;;20.10;78.90;;;;;;4940040;28;19930;-82
2022/08/07 10:46:42;;;;;;;;;;;20.10;79.20;;;;;;4942205;28;19926;-84
2022/08/07 10:49:13;;;;;;;;;;;20.20;79.80;;;;;;4936003;28;19927;-84
2022/08/07 10:51:45;;;;;;;;;;;20.20;79.20;;;;;;4932917;28;19926;-83
2022/08/07 10:54:15;;;;;;;;;;;20.30;79.20;;;;;;4900930;28;20718;-82
2022/08/07 10:56:46;;;;;;;;;;;20.30;78.50;;;;;;4932387;28;19926;-83
2022/08/07 10:59:19;;;;;;;;;;;20.30;78.30;;;;;;4932275;28;19938;-83
2022/08/07 11:01:49;;;;;;;;;;;20.30;78.00;;;;;;4934342;28;19942;-82
2022/08/07 11:04:22;;;;;;;;;;;20.40;77.60;;;;;;4931892;28;19955;-82
2022/08/07 11:06:53;;;;;;;;;;;20.30;77.00;;;;;;4929245;28;19935;-83
2022/08/07 11:09:24;;;;;;;;;;;20.30;76.40;;;;;;4931856;28;19931;-82
2022/08/07 11:11:55;;;;;;;;;;;20.40;77.20;;;;;;4930850;28;20362;-82
2022/08/07 11:14:25;;;;;;;;;;;20.40;77.10;;;;;;4925059;28;19927;-83
2022/08/07 11:16:54;;;;;;;;;;;20.60;76.40;;;;;;4926912;28;19935;-83
2022/08/07 11:19:24;;;;;;;;;;;20.70;77.20;;;;;;4933229;28;19935;-83
2022/08/07 11:21:55;;;;;;;;;;;20.70;75.40;;;;;;4929663;28;20057;-81
2022/08/07 11:24:26;;;;;;;;;;;20.70;74.50;;;;;;4932127;28;19930;-81
2022/08/07 11:26:55;;;;;;;;;;;20.70;76.80;;;;;;4933271;28;19932;-80
2022/08/07 11:29:26;;;;;;;;;;;20.80;77.10;;;;;;4932750;28;20590;-81
2022/08/07 11:31:55;;;;;;;;;;;20.90;75.10;;;;;;4932214;28;19926;-81
2022/08/07 11:34:28;;;;;;;;;;;21.00;75.50;;;;;;4944189;28;20434;-80
2022/08/07 11:36:59;;;;;;;;;;;21.10;76.50;;;;;;4947672;28;19927;-81
2022/08/07 11:39:41;;;;;;;;;;;21.20;76.80;;;;;;4932237;28;20005;-81
2022/08/07 11:42:13;;;;;;;;;;;21.40;76.20;;;;;;4948668;28;19933;-81
2022/08/07 11:44:46;;;;;;;;;;;21.50;77.10;;;;;;4937630;28;20406;-81
2022/08/07 11:47:21;;;;;;;;;;;21.60;77.00;;;;;;4939602;28;19981;-81
2022/08/07 11:50:00;;;;;;;;;;;21.60;76.00;;;;;;4929695;28;19934;-80
2022/08/07 11:52:35;;;;;;;;;;;21.60;76.30;;;;;;4936659;28;20029;-80
2022/08/07 11:55:08;;;;;;;;;;;21.50;76.00;;;;;;4937327;28;19934;-79
2022/08/07 11:57:41;;;;;;;;;;;21.60;76.20;;;;;;4947179;28;19935;-79
2022/08/07 12:00:12;;;;;;;;;;;21.60;75.70;;;;;;4929979;28;20313;-79
2022/08/07 12:03:03;;;;;;;;;;;21.60;75.70;;;;;;4938200;28;19935;-79
2022/08/07 12:05:38;;;;;;;;;;;21.60;75.80;;;;;;4938756;28;20306;-79
2022/08/07 12:08:07;;;;;;;;;;;21.80;76.10;;;;;;4938064;28;19926;-80
2022/08/07 12:10:37;;;;;;;;;;;22.00;76.00;;;;;;4928971;28;20345;-79
2022/08/07 12:13:07;;;;;;;;;;;22.10;75.00;;;;;;4939175;28;20271;-80
2022/08/07 12:15:40;;;;;;;;;;;22.40;74.90;;;;;;4935772;28;20340;-80
2022/08/07 12:18:12;;;;;;;;;;;22.50;75.50;;;;;;4937349;28;19931;-80
2022/08/07 12:20:44;;;;;;;;;;;22.50;74.30;;;;;;4938973;28;19970;-80
2022/08/07 12:23:16;;;;;;;;;;;22.40;74.10;;;;;;4914751;28;20402;-80
2022/08/07 12:25:55;;;;;;;;;;;22.60;74.60;;;;;;4930426;28;20333;-80
2022/08/07 12:28:28;;;;;;;;;;;22.60;73.60;;;;;;4940683;28;20354;-79
2022/08/07 12:30:59;;;;;;;;;;;22.70;73.80;;;;;;4937180;28;19926;-82
2022/08/07 12:33:28;;;;;;;;;;;22.90;72.60;;;;;;4936495;28;21553;-81
2022/08/07 12:35:56;;;;;;;;;;;23.00;72.00;;;;;;4918844;28;19966;-82
2022/08/07 12:38:23;;;;;;;;;;;23.00;73.00;;;;;;4930057;28;20473;-83
2022/08/07 12:40:50;;;;;;;;;;;;;;;;;;4929737;28;20445;-81
2022/08/07 12:43:19;;;;;;;;;;;23.40;72.90;;;;;;4918276;28;20376;-82
2022/08/07 12:45:51;;;;;;;;;;;23.50;72.30;;;;;;4919255;28;19938;-81
2022/08/07 12:48:27;;;;;;;;;;;23.60;72.40;;;;;;4932117;28;19931;-82
2022/08/07 12:50:59;;;;;;;;;;;23.70;71.90;;;;;;4921586;28;19935;-81
2022/08/07 12:53:31;;;;;;;;;;;23.60;71.40;;;;;;4930337;28;19950;-81
2022/08/07 12:56:00;;;;;;;;;;;23.60;71.40;;;;;;4936406;28;19931;-82
2022/08/07 12:58:28;;;;;;;;;;;23.70;70.50;;;;;;4938640;28;20216;-82
2022/08/07 13:01:06;;;;;;;;;;;23.70;70.70;;;;;;4936277;28;19935;-82
2022/08/07 13:03:54;;;;;;;;;;;23.80;71.30;;;;;;4936988;28;19931;-82
2022/08/07 13:06:29;;;;;;;;;;;24.00;71.10;;;;;;4938275;28;19977;-82
2022/08/07 13:08:59;;;;;;;;;;;24.10;71.00;;;;;;4929757;28;19926;-82
2022/08/07 13:11:39;;;;;;;;;;;24.10;70.30;;;;;;4957149;28;20028;-82
2022/08/07 13:14:09;;;;;;;;;;;24.20;70.50;;;;;;4940901;28;19933;-82
2022/08/07 13:16:40;;;;;;;;;;;24.20;70.00;;;;;;4937227;28;19992;-82
2022/08/07 13:19:14;;;;;;;;;;;24.20;69.80;;;;;;4939924;28;20348;-83
2022/08/07 13:21:43;;;;;;;;;;;24.40;69.90;;;;;;4936165;28;19966;-83
2022/08/07 13:24:28;;;;;;;;;;;24.10;65.60;;;;;;4940732;28;19989;-83
2022/08/07 13:26:57;;;;;;;;;;;24.10;68.20;;;;;;4937898;28;20018;-83
2022/08/07 13:29:26;;;;;;;;;;;24.20;68.60;;;;;;4940924;28;20481;-83
2022/08/07 13:31:56;;;;;;;;;;;24.30;68.30;;;;;;4940322;28;19935;-83
2022/08/07 13:34:29;;;;;;;;;;;24.40;68.60;;;;;;4937102;28;19990;-83
2022/08/07 13:36:58;;;;;;;;;;;24.40;69.10;;;;;;4941035;28;19926;-83
2022/08/07 13:39:29;;;;;;;;;;;24.40;69.10;;;;;;4931083;28;20204;-83
2022/08/07 13:41:56;;;;;;;;;;;24.40;67.90;;;;;;4932674;28;19938;-83
2022/08/07 13:44:25;;;;;;;;;;;24.40;68.30;;;;;;4950130;28;19978;-83
2022/08/07 13:46:55;;;;;;;;;;;24.50;68.10;;;;;;4936305;28;19927;-83
2022/08/07 13:49:22;;;;;;;;;;;24.60;67.80;;;;;;4936285;28;19930;-83
2022/08/07 13:51:52;;;;;;;;;;;24.60;67.40;;;;;;4932993;28;20384;-83
2022/08/07 13:54:19;;;;;;;;;;;;;;;;;;4937309;28;20358;-84
2022/08/07 13:56:46;;;;;;;;;;;24.80;66.50;;;;;;4933587;28;20009;-85
2022/08/07 13:59:15;;;;;;;;;;;24.80;67.10;;;;;;4938206;28;19973;-84
2022/08/07 14:01:50;;;;;;;;;;;24.90;66.20;;;;;;4955125;28;19927;-84
2022/08/07 14:04:18;;;;;;;;;;;24.90;66.00;;;;;;4942345;28;19927;-83
2022/08/07 14:06:45;;;;;;;;;;;25.00;65.90;;;;;;4944936;28;19955;-83
2022/08/07 14:09:19;;;;;;;;;;;25.00;66.80;;;;;;4931521;28;20365;-83
2022/08/07 14:11:49;;;;;;;;;;;25.00;65.90;;;;;;4932766;28;20348;-81
2022/08/07 14:14:16;;;;;;;;;;;24.90;67.20;;;;;;4930082;28;20017;-82
2022/08/07 14:16:45;;;;;;;;;;;24.80;67.70;;;;;;4935088;28;19957;-81
2022/08/07 14:19:16;;;;;;;;;;;24.70;67.80;;;;;;4944555;23;20004;-78
2022/08/07 14:21:44;;;;;;;;;;;24.60;68.10;;;;;;4949646;28;19938;-78
2022/08/07 14:24:13;;;;;;;;;;;24.60;68.50;;;;;;4943500;28;19935;-77
2022/08/07 14:26:44;;;;;;;;;;;24.50;68.50;;;;;;4949325;28;19926;-78
2022/08/07 14:29:12;;;;;;;;;;;24.50;68.50;;;;;;4937592;28;19926;-79
2022/08/07 14:31:39;;;;;;;;;;;24.50;68.50;;;;;;4940953;28;20304;-79
2022/08/07 14:34:07;;;;;;;;;;;24.40;68.50;;;;;;4951628;28;19927;-79
2022/08/07 14:36:34;;;;;;;;;;;24.40;68.70;;;;;;4938246;28;20009;-78
2022/08/07 14:39:02;;;;;;;;;;;24.40;68.70;;;;;;4953943;28;19927;-80
2022/08/07 14:41:31;;;;;;;;;;;24.40;68.60;;;;;;4935764;28;19941;-79
2022/08/07 14:44:01;;;;;;;;;;;24.40;68.70;;;;;;4930346;28;19964;-79